sensor_id;sensor_type;location;lat;lon;timestamp;temperature;humidity
33093;DHT22;19456;46.104;12.908;2023-07-13T00:00:41;21.20;99.90
33093;DHT22;19456;46.104;12.908;2023-07-13T00:03:07;21.30;99.90
33093;DHT22;19456;46.104;12.908;2023-07-13T00:05:33;21.40;99.90
33093;DHT22;19456;46.104;12.908;2023-07-13T00:07:59;21.50;99.90
33093;DHT22;19456;46.104;12.908;2023-07-13T00:10:24;21.30;99.90
33093;DHT22;19456;46.104;12.908;2023-07-13T00:12:50;21.40;99.90
33093;DHT22;19456;46.104;12.908;2023-07-13T00:15:18;21.30;99.90
33093;DHT22;19456;46.104;12.908;2023-07-13T00:17:57;20.90;99.90
33093;DHT22;19456;46.104;12.908;2023-07-13T00:20:23;20.80;99.90
33093;DHT22;19456;46.104;12.908;2023-07-13T00:22:50;20.70;99.90
33093;DHT22;19456;46.104;12.908;2023-07-13T00:25:17;20.80;99.90
33093;DHT22;19456;46.104;12.908;2023-07-13T00:27:43;20.90;99.90
33093;DHT22;19456;46.104;12.908;2023-07-13T00:30:09;20.90;99.90
33093;DHT22;19456;46.104;12.908;2023-07-13T00:32:35;20.90;99.90
33093;DHT22;19456;46.104;12.908;2023-07-13T00:35:01;20.90;99.90
33093;DHT22;19456;46.104;12.908;2023-07-13T00:37:28;21.10;99.90
33093;DHT22;19456;46.104;12.908;2023-07-13T00:39:54;20.70;99.90
33093;DHT22;19456;46.104;12.908;2023-07-13T00:42:19;20.50;99.90
33093;DHT22;19456;46.104;12.908;2023-07-13T00:47:31;20.30;99.90
33093;DHT22;19456;46.104;12.908;2023-07-13T00:49:56;20.30;99.90
33093;DHT22;19456;46.104;12.908;2023-07-13T00:52:22;20.20;99.90
33093;DHT22;19456;46.104;12.908;2023-07-13T00:54:48;20.30;99.90
33093;DHT22;19456;46.104;12.908;2023-07-13T00:57:15;20.20;99.90
33093;DHT22;19456;46.104;12.908;2023-07-13T00:59:42;20.30;99.90
33093;DHT22;19456;46.104;12.908;2023-07-13T01:02:08;20.30;99.90
33093;DHT22;19456;46.104;12.908;2023-07-13T01:04:34;20.40;99.90
33093;DHT22;19456;46.104;12.908;2023-07-13T01:06:59;20.30;99.90
33093;DHT22;19456;46.104;12.908;2023-07-13T01:09:26;20.40;99.90
33093;DHT22;19456;46.104;12.908;2023-07-13T01:11:51;20.40;99.90
33093;DHT22;19456;46.104;12.908;2023-07-13T01:14:17;20.50;99.90
33093;DHT22;19456;46.104;12.908;2023-07-13T01:16:43;20.50;99.90
33093;DHT22;19456;46.104;12.908;2023-07-13T01:19:12;20.60;99.90
33093;DHT22;19456;46.104;12.908;2023-07-13T01:21:42;20.80;99.90
33093;DHT22;19456;46.104;12.908;2023-07-13T01:24:08;21.10;99.90
33093;DHT22;19456;46.104;12.908;2023-07-13T01:26:34;21.20;99.90
33093;DHT22;19456;46.104;12.908;2023-07-13T01:28:59;21.20;99.90
33093;DHT22;19456;46.104;12.908;2023-07-13T01:31:25;21.20;99.90
33093;DHT22;19456;46.104;12.908;2023-07-13T01:33:51;21.10;99.90
33093;DHT22;19456;46.104;12.908;2023-07-13T01:36:17;21.20;99.90
33093;DHT22;19456;46.104;12.908;2023-07-13T01:38:42;21.10;99.90
33093;DHT22;19456;46.104;12.908;2023-07-13T01:41:08;21.20;99.90
33093;DHT22;19456;46.104;12.908;2023-07-13T01:43:33;21.20;99.90
33093;DHT22;19456;46.104;12.908;2023-07-13T01:45:59;21.30;99.90
33093;DHT22;19456;46.104;12.908;2023-07-13T01:48:24;21.20;99.90
33093;DHT22;19456;46.104;12.908;2023-07-13T01:50:50;21.20;99.90
33093;DHT22;19456;46.104;12.908;2023-07-13T01:53:16;21.20;99.90
33093;DHT22;19456;46.104;12.908;2023-07-13T01:55:41;21.10;99.90
33093;DHT22;19456;46.104;12.908;2023-07-13T01:58:07;21.20;99.90
33093;DHT22;19456;46.104;12.908;2023-07-13T02:00:33;21.10;99.90
33093;DHT22;19456;46.104;12.908;2023-07-13T02:02:59;21.10;99.90
33093;DHT22;19456;46.104;12.908;2023-07-13T02:05:25;21.00;99.90
33093;DHT22;19456;46.104;12.908;2023-07-13T02:07:50;21.00;99.90
33093;DHT22;19456;46.104;12.908;2023-07-13T02:10:16;21.10;99.90
33093;DHT22;19456;46.104;12.908;2023-07-13T02:12:42;21.10;99.90
33093;DHT22;19456;46.104;12.908;2023-07-13T02:15:08;21.00;99.90
33093;DHT22;19456;46.104;12.908;2023-07-13T02:17:34;20.80;99.90
33093;DHT22;19456;46.104;12.908;2023-07-13T02:20:00;20.70;99.90
33093;DHT22;19456;46.104;12.908;2023-07-13T02:22:25;20.60;99.90
33093;DHT22;19456;46.104;12.908;2023-07-13T02:24:51;20.60;99.90
33093;DHT22;19456;46.104;12.908;2023-07-13T02:27:17;20.50;99.90
33093;DHT22;19456;46.104;12.908;2023-07-13T02:29:42;20.30;99.90
33093;DHT22;19456;46.104;12.908;2023-07-13T02:32:08;20.20;99.90
33093;DHT22;19456;46.104;12.908;2023-07-13T02:34:34;20.30;99.90
33093;DHT22;19456;46.104;12.908;2023-07-13T02:36:59;20.40;99.90
33093;DHT22;19456;46.104;12.908;2023-07-13T02:39:28;20.60;99.90
33093;DHT22;19456;46.104;12.908;2023-07-13T02:41:53;20.60;99.90
33093;DHT22;19456;46.104;12.908;2023-07-13T02:44:19;20.40;99.90
33093;DHT22;19456;46.104;12.908;2023-07-13T02:46:45;20.50;99.90
33093;DHT22;19456;46.104;12.908;2023-07-13T02:49:10;20.60;99.90
33093;DHT22;19456;46.104;12.908;2023-07-13T02:51:36;20.50;99.90
33093;DHT22;19456;46.104;12.908;2023-07-13T02:54:02;20.50;99.90
33093;DHT22;19456;46.104;12.908;2023-07-13T02:56:28;20.60;99.90
33093;DHT22;19456;46.104;12.908;2023-07-13T02:58:54;20.70;99.90
33093;DHT22;19456;46.104;12.908;2023-07-13T03:01:20;20.80;99.90
33093;DHT22;19456;46.104;12.908;2023-07-13T03:03:47;20.70;99.90
33093;DHT22;19456;46.104;12.908;2023-07-13T03:06:13;20.40;99.90
33093;DHT22;19456;46.104;12.908;2023-07-13T03:08:39;20.40;99.90
33093;DHT22;19456;46.104;12.908;2023-07-13T03:11:09;20.40;99.90
33093;DHT22;19456;46.104;12.908;2023-07-13T03:13:36;20.30;99.90
33093;DHT22;19456;46.104;12.908;2023-07-13T03:16:02;20.30;99.90
33093;DHT22;19456;46.104;12.908;2023-07-13T03:18:28;20.20;99.90
33093;DHT22;19456;46.104;12.908;2023-07-13T03:20:54;20.30;99.90
33093;DHT22;19456;46.104;12.908;2023-07-13T03:23:20;20.50;99.90
33093;DHT22;19456;46.104;12.908;2023-07-13T03:25:46;20.60;99.90
33093;DHT22;19456;46.104;12.908;2023-07-13T03:28:12;20.60;99.90
33093;DHT22;19456;46.104;12.908;2023-07-13T03:30:37;20.60;99.90
33093;DHT22;19456;46.104;12.908;2023-07-13T03:33:03;20.60;99.90
33093;DHT22;19456;46.104;12.908;2023-07-13T03:35:29;20.50;99.90
33093;DHT22;19456;46.104;12.908;2023-07-13T03:37:54;20.60;99.90
33093;DHT22;19456;46.104;12.908;2023-07-13T03:40:20;20.70;99.90
33093;DHT22;19456;46.104;12.908;2023-07-13T03:42:46;20.60;99.90
33093;DHT22;19456;46.104;12.908;2023-07-13T03:45:12;20.50;99.90
33093;DHT22;19456;46.104;12.908;2023-07-13T03:47:37;20.50;99.90
33093;DHT22;19456;46.104;12.908;2023-07-13T03:50:03;20.30;99.90
33093;DHT22;19456;46.104;12.908;2023-07-13T03:52:29;20.20;99.90
33093;DHT22;19456;46.104;12.908;2023-07-13T03:54:54;20.20;99.90
33093;DHT22;19456;46.104;12.908;2023-07-13T03:57:20;20.20;99.90
33093;DHT22;19456;46.104;12.908;2023-07-13T03:59:45;20.20;99.90
33093;DHT22;19456;46.104;12.908;2023-07-13T04:02:11;20.10;99.90
33093;DHT22;19456;46.104;12.908;2023-07-13T04:04:36;20.20;99.90
33093;DHT22;19456;46.104;12.908;2023-07-13T04:07:04;20.40;99.90
33093;DHT22;19456;46.104;12.908;2023-07-13T04:09:29;20.50;99.90
33093;DHT22;19456;46.104;12.908;2023-07-13T04:11:55;20.70;99.90
33093;DHT22;19456;46.104;12.908;2023-07-13T04:14:20;20.70;99.90
33093;DHT22;19456;46.104;12.908;2023-07-13T04:16:46;20.50;99.90
33093;DHT22;19456;46.104;12.908;2023-07-13T04:19:12;20.30;99.90
33093;DHT22;19456;46.104;12.908;2023-07-13T04:21:38;20.20;99.90
33093;DHT22;19456;46.104;12.908;2023-07-13T04:24:03;20.10;99.90
33093;DHT22;19456;46.104;12.908;2023-07-13T04:26:29;20.00;99.90
33093;DHT22;19456;46.104;12.908;2023-07-13T04:28:55;20.10;99.90
33093;DHT22;19456;46.104;12.908;2023-07-13T04:31:22;20.10;99.90
33093;DHT22;19456;46.104;12.908;2023-07-13T04:33:48;20.00;99.90
33093;DHT22;19456;46.104;12.908;2023-07-13T04:36:15;20.00;99.90
33093;DHT22;19456;46.104;12.908;2023-07-13T04:38:40;20.00;99.90
33093;DHT22;19456;46.104;12.908;2023-07-13T04:41:07;20.00;99.90
33093;DHT22;19456;46.104;12.908;2023-07-13T04:43:32;20.10;99.90
33093;DHT22;19456;46.104;12.908;2023-07-13T04:46:02;20.30;99.90
33093;DHT22;19456;46.104;12.908;2023-07-13T04:48:28;20.50;99.90
33093;DHT22;19456;46.104;12.908;2023-07-13T04:50:54;20.70;99.90
33093;DHT22;19456;46.104;12.908;2023-07-13T04:53:20;20.80;99.90
33093;DHT22;19456;46.104;12.908;2023-07-13T04:55:46;20.90;99.90
33093;DHT22;19456;46.104;12.908;2023-07-13T04:58:12;21.10;99.90
33093;DHT22;19456;46.104;12.908;2023-07-13T05:00:38;21.20;99.90
33093;DHT22;19456;46.104;12.908;2023-07-13T05:03:04;21.50;99.90
33093;DHT22;19456;46.104;12.908;2023-07-13T05:05:29;21.60;99.90
33093;DHT22;19456;46.104;12.908;2023-07-13T05:07:55;21.60;99.90
33093;DHT22;19456;46.104;12.908;2023-07-13T05:10:21;21.50;99.90
33093;DHT22;19456;46.104;12.908;2023-07-13T05:12:46;21.40;99.90
33093;DHT22;19456;46.104;12.908;2023-07-13T05:15:12;21.40;99.90
33093;DHT22;19456;46.104;12.908;2023-07-13T05:17:38;21.50;99.90
33093;DHT22;19456;46.104;12.908;2023-07-13T05:20:07;21.60;99.90
33093;DHT22;19456;46.104;12.908;2023-07-13T05:22:33;21.70;99.90
33093;DHT22;19456;46.104;12.908;2023-07-13T05:25:04;21.80;99.90
33093;DHT22;19456;46.104;12.908;2023-07-13T05:27:30;21.80;99.90
33093;DHT22;19456;46.104;12.908;2023-07-13T05:29:55;22.00;99.90
33093;DHT22;19456;46.104;12.908;2023-07-13T05:32:21;21.90;99.90
33093;DHT22;19456;46.104;12.908;2023-07-13T05:34:47;21.90;99.90
33093;DHT22;19456;46.104;12.908;2023-07-13T05:37:12;22.00;99.90
33093;DHT22;19456;46.104;12.908;2023-07-13T05:39:38;22.00;99.90
33093;DHT22;19456;46.104;12.908;2023-07-13T05:42:03;22.00;99.90
33093;DHT22;19456;46.104;12.908;2023-07-13T05:44:30;22.10;99.90
33093;DHT22;19456;46.104;12.908;2023-07-13T05:46:55;22.00;99.90
33093;DHT22;19456;46.104;12.908;2023-07-13T05:49:22;22.10;99.90
33093;DHT22;19456;46.104;12.908;2023-07-13T05:51:48;22.00;99.90
33093;DHT22;19456;46.104;12.908;2023-07-13T05:54:13;22.00;99.90
33093;DHT22;19456;46.104;12.908;2023-07-13T05:56:39;21.90;99.90
33093;DHT22;19456;46.104;12.908;2023-07-13T05:59:04;22.00;99.90
33093;DHT22;19456;46.104;12.908;2023-07-13T06:01:30;22.10;99.90
33093;DHT22;19456;46.104;12.908;2023-07-13T06:03:56;22.40;99.90
33093;DHT22;19456;46.104;12.908;2023-07-13T06:06:21;22.60;99.90
33093;DHT22;19456;46.104;12.908;2023-07-13T06:08:48;22.70;99.90
33093;DHT22;19456;46.104;12.908;2023-07-13T06:11:15;22.80;99.90
33093;DHT22;19456;46.104;12.908;2023-07-13T06:13:41;22.70;99.90
33093;DHT22;19456;46.104;12.908;2023-07-13T06:16:07;22.80;99.90
33093;DHT22;19456;46.104;12.908;2023-07-13T06:18:34;22.90;99.90
33093;DHT22;19456;46.104;12.908;2023-07-13T06:21:01;23.00;99.90
33093;DHT22;19456;46.104;12.908;2023-07-13T06:23:26;23.00;99.90
33093;DHT22;19456;46.104;12.908;2023-07-13T06:25:53;23.00;99.90
33093;DHT22;19456;46.104;12.908;2023-07-13T06:28:19;23.10;99.90
33093;DHT22;19456;46.104;12.908;2023-07-13T06:30:44;23.30;99.90
33093;DHT22;19456;46.104;12.908;2023-07-13T06:33:10;23.40;99.90
33093;DHT22;19456;46.104;12.908;2023-07-13T06:35:35;23.80;99.90
33093;DHT22;19456;46.104;12.908;2023-07-13T06:38:01;24.10;99.90
33093;DHT22;19456;46.104;12.908;2023-07-13T06:40:27;24.20;99.90
33093;DHT22;19456;46.104;12.908;2023-07-13T06:42:54;24.40;99.90
33093;DHT22;19456;46.104;12.908;2023-07-13T06:45:19;24.60;99.90
33093;DHT22;19456;46.104;12.908;2023-07-13T06:47:45;24.90;99.90
33093;DHT22;19456;46.104;12.908;2023-07-13T06:50:10;25.10;99.90
33093;DHT22;19456;46.104;12.908;2023-07-13T06:52:36;25.10;99.90
33093;DHT22;19456;46.104;12.908;2023-07-13T06:55:02;25.20;99.90
33093;DHT22;19456;46.104;12.908;2023-07-13T06:57:28;25.30;99.90
33093;DHT22;19456;46.104;12.908;2023-07-13T06:59:53;25.20;99.90
33093;DHT22;19456;46.104;12.908;2023-07-13T07:02:19;25.30;99.90
33093;DHT22;19456;46.104;12.908;2023-07-13T07:04:44;25.30;99.90
33093;DHT22;19456;46.104;12.908;2023-07-13T07:07:10;25.60;99.90
33093;DHT22;19456;46.104;12.908;2023-07-13T07:09:36;25.60;99.90
33093;DHT22;19456;46.104;12.908;2023-07-13T07:12:02;25.80;99.90
33093;DHT22;19456;46.104;12.908;2023-07-13T07:14:27;25.90;99.90
33093;DHT22;19456;46.104;12.908;2023-07-13T07:16:53;26.00;99.90
33093;DHT22;19456;46.104;12.908;2023-07-13T07:19:19;26.20;99.90
33093;DHT22;19456;46.104;12.908;2023-07-13T07:21:44;26.10;99.90
33093;DHT22;19456;46.104;12.908;2023-07-13T07:24:10;26.20;99.90
33093;DHT22;19456;46.104;12.908;2023-07-13T07:26:35;26.20;99.90
33093;DHT22;19456;46.104;12.908;2023-07-13T07:29:01;26.10;99.90
33093;DHT22;19456;46.104;12.908;2023-07-13T07:31:27;26.10;99.90
33093;DHT22;19456;46.104;12.908;2023-07-13T07:33:52;26.00;99.90
33093;DHT22;19456;46.104;12.908;2023-07-13T07:36:18;25.70;99.90
33093;DHT22;19456;46.104;12.908;2023-07-13T07:38:43;25.70;99.90
33093;DHT22;19456;46.104;12.908;2023-07-13T07:41:09;25.90;99.90
33093;DHT22;19456;46.104;12.908;2023-07-13T07:43:37;26.00;99.90
33093;DHT22;19456;46.104;12.908;2023-07-13T07:46:03;26.00;99.90
33093;DHT22;19456;46.104;12.908;2023-07-13T07:48:28;26.10;99.90
33093;DHT22;19456;46.104;12.908;2023-07-13T07:50:54;26.10;99.90
33093;DHT22;19456;46.104;12.908;2023-07-13T07:53:19;26.30;99.90
33093;DHT22;19456;46.104;12.908;2023-07-13T07:55:45;26.30;99.90
33093;DHT22;19456;46.104;12.908;2023-07-13T07:58:14;26.50;99.90
33093;DHT22;19456;46.104;12.908;2023-07-13T08:00:39;26.40;99.90
33093;DHT22;19456;46.104;12.908;2023-07-13T08:03:05;26.30;99.90
33093;DHT22;19456;46.104;12.908;2023-07-13T08:05:31;26.10;99.90
33093;DHT22;19456;46.104;12.908;2023-07-13T08:07:56;26.10;99.90
33093;DHT22;19456;46.104;12.908;2023-07-13T08:10:22;26.60;99.90
33093;DHT22;19456;46.104;12.908;2023-07-13T08:12:48;26.60;99.90
33093;DHT22;19456;46.104;12.908;2023-07-13T08:15:14;26.60;99.90
33093;DHT22;19456;46.104;12.908;2023-07-13T08:17:40;26.60;99.90
33093;DHT22;19456;46.104;12.908;2023-07-13T08:20:06;26.60;99.90
33093;DHT22;19456;46.104;12.908;2023-07-13T08:22:31;26.60;99.90
33093;DHT22;19456;46.104;12.908;2023-07-13T08:24:58;26.50;99.90
33093;DHT22;19456;46.104;12.908;2023-07-13T08:27:24;26.60;99.90
33093;DHT22;19456;46.104;12.908;2023-07-13T08:29:50;26.70;99.90
33093;DHT22;19456;46.104;12.908;2023-07-13T08:32:17;26.80;99.90
33093;DHT22;19456;46.104;12.908;2023-07-13T08:34:43;26.90;99.90
33093;DHT22;19456;46.104;12.908;2023-07-13T08:37:09;27.10;99.90
33093;DHT22;19456;46.104;12.908;2023-07-13T08:39:34;27.00;99.90
33093;DHT22;19456;46.104;12.908;2023-07-13T08:42:05;27.30;99.90
33093;DHT22;19456;46.104;12.908;2023-07-13T08:47:18;27.90;99.90
33093;DHT22;19456;46.104;12.908;2023-07-13T08:49:46;27.90;99.90
33093;DHT22;19456;46.104;12.908;2023-07-13T08:52:14;27.90;99.90
33093;DHT22;19456;46.104;12.908;2023-07-13T08:54:45;28.00;99.90
33093;DHT22;19456;46.104;12.908;2023-07-13T08:57:13;28.10;99.90
33093;DHT22;19456;46.104;12.908;2023-07-13T08:59:40;28.10;99.90
33093;DHT22;19456;46.104;12.908;2023-07-13T09:02:26;28.00;99.90
33093;DHT22;19456;46.104;12.908;2023-07-13T09:04:59;28.20;99.90
33093;DHT22;19456;46.104;12.908;2023-07-13T09:07:45;28.30;99.90
33093;DHT22;19456;46.104;12.908;2023-07-13T09:10:15;28.40;99.90
33093;DHT22;19456;46.104;12.908;2023-07-13T09:15:28;28.70;99.90
33093;DHT22;19456;46.104;12.908;2023-07-13T09:17:56;28.60;99.90
33093;DHT22;19456;46.104;12.908;2023-07-13T09:20:29;28.90;99.90
33093;DHT22;19456;46.104;12.908;2023-07-13T09:22:55;28.90;99.90
33093;DHT22;19456;46.104;12.908;2023-07-13T09:27:50;29.00;99.90
33093;DHT22;19456;46.104;12.908;2023-07-13T09:30:23;29.10;99.90
33093;DHT22;19456;46.104;12.908;2023-07-13T09:32:51;29.00;99.90
33093;DHT22;19456;46.104;12.908;2023-07-13T09:35:19;29.10;99.90
33093;DHT22;19456;46.104;12.908;2023-07-13T09:37:46;29.00;99.90
33093;DHT22;19456;46.104;12.908;2023-07-13T09:40:26;28.90;99.90
33093;DHT22;19456;46.104;12.908;2023-07-13T09:42:53;28.90;99.90
33093;DHT22;19456;46.104;12.908;2023-07-13T09:45:27;28.80;99.90
33093;DHT22;19456;46.104;12.908;2023-07-13T09:47:58;28.50;99.90
33093;DHT22;19456;46.104;12.908;2023-07-13T09:50:24;28.30;99.90
33093;DHT22;19456;46.104;12.908;2023-07-13T09:52:49;28.20;99.90
33093;DHT22;19456;46.104;12.908;2023-07-13T09:55:26;27.90;99.90
33093;DHT22;19456;46.104;12.908;2023-07-13T09:57:52;27.60;99.90
33093;DHT22;19456;46.104;12.908;2023-07-13T10:00:22;27.50;99.90
33093;DHT22;19456;46.104;12.908;2023-07-13T10:02:57;27.40;99.90
33093;DHT22;19456;46.104;12.908;2023-07-13T10:05:23;27.20;99.90
33093;DHT22;19456;46.104;12.908;2023-07-13T10:07:50;27.10;99.90
33093;DHT22;19456;46.104;12.908;2023-07-13T10:10:19;27.00;99.90
33093;DHT22;19456;46.104;12.908;2023-07-13T10:12:46;27.00;99.90
33093;DHT22;19456;46.104;12.908;2023-07-13T10:15:19;27.10;99.90
33093;DHT22;19456;46.104;12.908;2023-07-13T10:17:45;27.10;99.90
33093;DHT22;19456;46.104;12.908;2023-07-13T10:20:11;27.10;99.90
33093;DHT22;19456;46.104;12.908;2023-07-13T10:22:59;27.00;99.90
33093;DHT22;19456;46.104;12.908;2023-07-13T10:25:27;27.10;99.90
33093;DHT22;19456;46.104;12.908;2023-07-13T10:27:54;27.20;99.90
33093;DHT22;19456;46.104;12.908;2023-07-13T10:30:27;26.90;99.90
33093;DHT22;19456;46.104;12.908;2023-07-13T10:32:58;26.80;99.90
33093;DHT22;19456;46.104;12.908;2023-07-13T10:35:23;26.50;99.90
33093;DHT22;19456;46.104;12.908;2023-07-13T10:38:01;26.00;99.90
33093;DHT22;19456;46.104;12.908;2023-07-13T10:43:34;26.00;99.90
33093;DHT22;19456;46.104;12.908;2023-07-13T10:46:02;26.00;99.90
33093;DHT22;19456;46.104;12.908;2023-07-13T10:48:29;26.20;99.90
33093;DHT22;19456;46.104;12.908;2023-07-13T10:50:57;26.10;99.90
33093;DHT22;19456;46.104;12.908;2023-07-13T10:53:43;26.10;99.90
33093;DHT22;19456;46.104;12.908;2023-07-13T10:56:29;26.10;99.90
33093;DHT22;19456;46.104;12.908;2023-07-13T11:01:39;26.20;99.90
33093;DHT22;19456;46.104;12.908;2023-07-13T11:04:05;26.30;99.90
33093;DHT22;19456;46.104;12.908;2023-07-13T11:06:38;26.40;99.90
33093;DHT22;19456;46.104;12.908;2023-07-13T11:11:50;26.20;99.90
33093;DHT22;19456;46.104;12.908;2023-07-13T11:16:54;26.30;99.90
33093;DHT22;19456;46.104;12.908;2023-07-13T11:24:29;26.80;99.90
33093;DHT22;19456;46.104;12.908;2023-07-13T11:27:23;26.80;99.90
33093;DHT22;19456;46.104;12.908;2023-07-13T11:29:53;27.20;99.90
33093;DHT22;19456;46.104;12.908;2023-07-13T11:32:32;27.70;99.90
33093;DHT22;19456;46.104;12.908;2023-07-13T11:34:57;27.90;99.90
33093;DHT22;19456;46.104;12.908;2023-07-13T11:37:23;28.00;99.90
33093;DHT22;19456;46.104;12.908;2023-07-13T11:39:49;28.30;99.90
33093;DHT22;19456;46.104;12.908;2023-07-13T11:42:17;28.70;99.90
33093;DHT22;19456;46.104;12.908;2023-07-13T11:44:44;29.20;99.90
33093;DHT22;19456;46.104;12.908;2023-07-13T11:47:11;29.70;99.90
33093;DHT22;19456;46.104;12.908;2023-07-13T11:49:43;29.70;99.90
33093;DHT22;19456;46.104;12.908;2023-07-13T11:52:17;29.60;99.90
33093;DHT22;19456;46.104;12.908;2023-07-13T11:54:48;29.90;99.90
33093;DHT22;19456;46.104;12.908;2023-07-13T11:57:32;29.90;99.90
33093;DHT22;19456;46.104;12.908;2023-07-13T12:00:32;30.50;99.90
33093;DHT22;19456;46.104;12.908;2023-07-13T12:02:52;30.60;99.90
33093;DHT22;19456;46.104;12.908;2023-07-13T12:05:19;31.20;99.90
33093;DHT22;19456;46.104;12.908;2023-07-13T12:07:46;31.20;99.90
33093;DHT22;19456;46.104;12.908;2023-07-13T12:12:53;31.70;99.90
33093;DHT22;19456;46.104;12.908;2023-07-13T12:15:21;31.90;99.90
33093;DHT22;19456;46.104;12.908;2023-07-13T12:17:47;31.80;99.90
33093;DHT22;19456;46.104;12.908;2023-07-13T12:20:17;32.00;99.90
33093;DHT22;19456;46.104;12.908;2023-07-13T12:22:48;32.00;99.90
33093;DHT22;19456;46.104;12.908;2023-07-13T12:25:13;32.40;99.90
33093;DHT22;19456;46.104;12.908;2023-07-13T12:27:40;32.60;99.90
33093;DHT22;19456;46.104;12.908;2023-07-13T12:30:21;32.20;99.90
33093;DHT22;19456;46.104;12.908;2023-07-13T12:33:08;31.90;99.90
33093;DHT22;19456;46.104;12.908;2023-07-13T12:35:40;31.60;99.90
33093;DHT22;19456;46.104;12.908;2023-07-13T12:38:08;31.90;99.90
33093;DHT22;19456;46.104;12.908;2023-07-13T12:40:34;32.80;99.90
33093;DHT22;19456;46.104;12.908;2023-07-13T12:43:00;33.30;99.90
33093;DHT22;19456;46.104;12.908;2023-07-13T12:45:27;32.80;99.90
33093;DHT22;19456;46.104;12.908;2023-07-13T12:47:59;33.30;99.90
33093;DHT22;19456;46.104;12.908;2023-07-13T12:50:37;34.30;99.90
33093;DHT22;19456;46.104;12.908;2023-07-13T12:53:05;34.20;99.90
33093;DHT22;19456;46.104;12.908;2023-07-13T12:55:40;34.60;99.90
33093;DHT22;19456;46.104;12.908;2023-07-13T12:58:06;34.50;99.90
33093;DHT22;19456;46.104;12.908;2023-07-13T13:00:33;34.90;99.90
33093;DHT22;19456;46.104;12.908;2023-07-13T13:03:05;34.60;99.90
33093;DHT22;19456;46.104;12.908;2023-07-13T13:05:32;34.60;99.90
33093;DHT22;19456;46.104;12.908;2023-07-13T13:07:59;34.80;99.90
33093;DHT22;19456;46.104;12.908;2023-07-13T13:10:25;35.20;99.90
33093;DHT22;19456;46.104;12.908;2023-07-13T13:12:51;35.10;99.90
33093;DHT22;19456;46.104;12.908;2023-07-13T13:15:17;35.30;99.90
33093;DHT22;19456;46.104;12.908;2023-07-13T13:17:43;35.40;99.90
33093;DHT22;19456;46.104;12.908;2023-07-13T13:20:15;35.50;99.90
33093;DHT22;19456;46.104;12.908;2023-07-13T13:22:41;36.00;99.90
33093;DHT22;19456;46.104;12.908;2023-07-13T13:25:09;36.30;99.90
33093;DHT22;19456;46.104;12.908;2023-07-13T13:27:35;36.40;99.90
33093;DHT22;19456;46.104;12.908;2023-07-13T13:30:00;36.30;99.90
33093;DHT22;19456;46.104;12.908;2023-07-13T13:32:26;36.70;99.90
33093;DHT22;19456;46.104;12.908;2023-07-13T13:34:51;36.60;99.90
33093;DHT22;19456;46.104;12.908;2023-07-13T13:37:22;36.50;99.90
33093;DHT22;19456;46.104;12.908;2023-07-13T13:39:48;36.50;99.90
33093;DHT22;19456;46.104;12.908;2023-07-13T13:42:14;36.80;99.90
33093;DHT22;19456;46.104;12.908;2023-07-13T13:44:40;36.30;99.90
33093;DHT22;19456;46.104;12.908;2023-07-13T13:47:19;36.50;99.90
33093;DHT22;19456;46.104;12.908;2023-07-13T13:49:46;36.30;99.90
33093;DHT22;19456;46.104;12.908;2023-07-13T13:52:12;35.90;99.90
33093;DHT22;19456;46.104;12.908;2023-07-13T13:54:38;36.00;99.90
33093;DHT22;19456;46.104;12.908;2023-07-13T13:57:03;35.70;99.90
33093;DHT22;19456;46.104;12.908;2023-07-13T13:59:30;35.50;99.90
33093;DHT22;19456;46.104;12.908;2023-07-13T14:01:57;36.10;99.90
33093;DHT22;19456;46.104;12.908;2023-07-13T14:04:25;35.50;99.90
33093;DHT22;19456;46.104;12.908;2023-07-13T14:06:50;35.10;99.90
33093;DHT22;19456;46.104;12.908;2023-07-13T14:09:17;35.10;99.90
33093;DHT22;19456;46.104;12.908;2023-07-13T14:11:47;35.00;99.90
33093;DHT22;19456;46.104;12.908;2023-07-13T14:14:17;34.70;99.90
33093;DHT22;19456;46.104;12.908;2023-07-13T14:16:44;34.50;99.90
33093;DHT22;19456;46.104;12.908;2023-07-13T14:19:11;34.10;99.90
33093;DHT22;19456;46.104;12.908;2023-07-13T14:21:37;34.20;99.90
33093;DHT22;19456;46.104;12.908;2023-07-13T14:24:03;34.30;99.90
33093;DHT22;19456;46.104;12.908;2023-07-13T14:26:29;33.90;99.90
33093;DHT22;19456;46.104;12.908;2023-07-13T14:28:57;33.50;99.90
33093;DHT22;19456;46.104;12.908;2023-07-13T14:31:25;33.00;99.90
33093;DHT22;19456;46.104;12.908;2023-07-13T14:33:51;32.80;99.90
33093;DHT22;19456;46.104;12.908;2023-07-13T14:38:58;31.90;99.90
33093;DHT22;19456;46.104;12.908;2023-07-13T14:41:24;31.60;99.90
33093;DHT22;19456;46.104;12.908;2023-07-13T14:43:49;31.50;99.90
33093;DHT22;19456;46.104;12.908;2023-07-13T14:46:22;31.20;99.90
33093;DHT22;19456;46.104;12.908;2023-07-13T14:48:49;31.00;99.90
33093;DHT22;19456;46.104;12.908;2023-07-13T14:51:15;31.00;99.90
33093;DHT22;19456;46.104;12.908;2023-07-13T14:53:41;30.60;99.90
33093;DHT22;19456;46.104;12.908;2023-07-13T14:56:10;30.30;99.90
33093;DHT22;19456;46.104;12.908;2023-07-13T14:58:36;30.10;99.90
33093;DHT22;19456;46.104;12.908;2023-07-13T15:01:01;30.00;99.90
33093;DHT22;19456;46.104;12.908;2023-07-13T15:03:27;29.90;99.90
33093;DHT22;19456;46.104;12.908;2023-07-13T15:05:52;29.80;99.90
33093;DHT22;19456;46.104;12.908;2023-07-13T15:08:18;29.60;99.90
33093;DHT22;19456;46.104;12.908;2023-07-13T15:10:44;29.40;99.90
33093;DHT22;19456;46.104;12.908;2023-07-13T15:13:14;29.20;99.90
33093;DHT22;19456;46.104;12.908;2023-07-13T15:15:40;29.10;99.90
33093;DHT22;19456;46.104;12.908;2023-07-13T15:18:08;29.10;99.90
33093;DHT22;19456;46.104;12.908;2023-07-13T15:20:34;29.10;99.90
33093;DHT22;19456;46.104;12.908;2023-07-13T15:23:01;29.00;99.90
33093;DHT22;19456;46.104;12.908;2023-07-13T15:25:27;28.90;99.90
33093;DHT22;19456;46.104;12.908;2023-07-13T15:27:53;28.90;99.90
33093;DHT22;19456;46.104;12.908;2023-07-13T15:30:19;28.70;99.90
33093;DHT22;19456;46.104;12.908;2023-07-13T15:32:45;28.50;99.90
33093;DHT22;19456;46.104;12.908;2023-07-13T15:35:18;28.30;99.90
33093;DHT22;19456;46.104;12.908;2023-07-13T15:37:44;28.20;99.90
33093;DHT22;19456;46.104;12.908;2023-07-13T15:40:10;28.30;99.90
33093;DHT22;19456;46.104;12.908;2023-07-13T15:42:37;28.30;99.90
33093;DHT22;19456;46.104;12.908;2023-07-13T15:45:04;28.20;99.90
33093;DHT22;19456;46.104;12.908;2023-07-13T15:47:31;28.30;99.90